Time;durP1;ratioP1;P1;durP2;ratioP2;P2;SDS_P1;SDS_P2;PMS_P1;PMS_P2;Temp;Humidity;BMP_temperature;BMP_pressure;BME280_temperature;BME280_humidity;BME280_pressure;Samples;Min_cycle;Max_cycle;Signal;HPM_P1;HPM_P2
2021/03/30 00:02:39;;;;;;;22.15;8.60;;;;;;;12.16;57.82;102954.25;10551963;28;20059;-78
2021/03/30 00:07:40;;;;;;;17.90;8.52;;;;;;;11.97;58.72;102918.50;10558334;28;20225;-78
2021/03/30 00:12:41;;;;;;;19.95;9.20;;;;;;;12.18;58.82;102962.88;10545783;28;20028;-77
2021/03/30 00:17:42;;;;;;;19.50;9.40;;;;;;;11.99;60.14;102943.38;10525017;28;20039;-78
2021/03/30 00:22:42;;;;;;;21.27;9.13;;;;;;;11.79;59.42;102918.47;10544352;28;20055;-78
2021/03/30 00:27:43;;;;;;;18.65;9.13;;;;;;;11.79;60.34;102923.88;10560699;28;20104;-78
2021/03/30 00:32:44;;;;;;;18.75;9.18;;;;;;;11.89;60.31;102938.28;10555265;28;20043;-77
2021/03/30 00:37:44;;;;;;;24.80;10.50;;;;;;;11.72;61.23;102912.72;10528880;28;20032;-77
2021/03/30 00:42:45;;;;;;;21.92;9.88;;;;;;;11.82;61.49;102955.75;10553463;28;20040;-77
2021/03/30 00:47:47;;;;;;;18.13;9.30;;;;;;;11.58;61.32;102949.97;10534529;28;20043;-78
2021/03/30 00:52:48;;;;;;;16.38;8.55;;;;;;;11.02;62.38;102900.06;10557330;28;20043;-78
2021/03/30 00:57:49;;;;;;;23.25;10.93;;;;;;;11.02;63.84;102959.59;10528741;28;20497;-78
2021/03/30 01:02:49;;;;;;;17.35;10.70;;;;;;;10.66;65.15;102946.97;10540054;28;20054;-78
2021/03/30 01:08:08;;;;;;;19.42;10.93;;;;;;;10.01;66.83;102889.50;10543895;28;20047;-78
2021/03/30 01:13:31;;;;;;;17.33;10.05;;;;;;;10.24;67.62;102959.81;10539885;28;20028;-78
2021/03/30 01:18:39;;;;;;;21.03;10.20;;;;;;;10.06;67.94;102973.16;10535722;28;20028;-78
2021/03/30 01:24:15;;;;;;;20.80;10.45;;;;;;;9.95;68.04;102960.97;10542151;28;20285;-78
2021/03/30 01:29:24;;;;;;;18.52;10.15;;;;;;;9.88;68.60;102960.59;10500569;28;20135;-78
2021/03/30 01:34:26;;;;;;;23.25;11.55;;;;;;;9.72;68.07;102925.78;10552794;28;20043;-77
2021/03/30 01:39:27;;;;;;;22.07;12.03;;;;;;;10.03;68.26;102957.56;10522073;28;20108;-77
2021/03/30 01:44:29;;;;;;;26.17;14.25;;;;;;;10.19;68.81;102957.22;10539894;28;20077;-78
2021/03/30 01:49:30;;;;;;;25.20;15.60;;;;;;;10.02;69.37;102912.72;10533425;28;20369;-78
2021/03/30 01:54:30;;;;;;;33.70;17.17;;;;;;;9.87;69.46;102915.75;10543145;28;20028;-77
2021/03/30 01:59:31;;;;;;;24.27;15.05;;;;;;;9.84;69.73;102932.56;10560247;28;20031;-77
2021/03/30 02:04:33;;;;;;;30.70;16.40;;;;;;;9.84;70.50;102965.00;10533787;28;20114;-78
2021/03/30 02:09:37;;;;;;;33.30;18.25;;;;;;;9.69;71.56;102941.81;10540526;28;20039;-76
2021/03/30 02:14:38;;;;;;;34.50;19.25;;;;;;;9.47;72.09;102907.41;10538080;28;20024;-76
2021/03/30 02:19:48;;;;;;;33.05;19.27;;;;;;;9.54;73.11;102897.00;10546741;28;20031;-76
2021/03/30 02:24:49;;;;;;;34.22;18.00;;;;;;;9.65;73.26;102895.69;10565500;28;20062;-76
2021/03/30 02:29:51;;;;;;;42.75;20.10;;;;;;;10.04;73.00;102947.53;10557900;28;20135;-77
2021/03/30 02:34:54;;;;;;;34.88;19.90;;;;;;;9.68;72.88;102897.78;10533230;28;20139;-79
2021/03/30 02:39:54;;;;;;;;;;;;;;;9.99;72.47;102940.34;10535478;28;20024;-76
2021/03/30 02:44:56;;;;;;;37.33;20.50;;;;;;;9.85;73.01;102934.16;10566397;28;19926;-76
2021/03/30 02:49:57;;;;;;;37.33;19.70;;;;;;;9.87;72.69;102931.97;10549626;28;20496;-78
2021/03/30 02:54:57;;;;;;;34.58;19.88;;;;;;;9.40;73.11;102888.09;10549655;28;20114;-78
2021/03/30 02:59:58;;;;;;;37.83;20.13;;;;;;;9.51;73.26;102940.81;10566443;28;20036;-75
2021/03/30 03:05:00;;;;;;;34.90;19.40;;;;;;;9.03;73.65;102897.97;10536357;28;20138;-76
2021/03/30 03:10:03;;;;;;;35.83;19.10;;;;;;;9.00;74.38;102925.56;10562360;28;20044;-76
2021/03/30 03:15:06;;;;;;;34.22;19.65;;;;;;;8.62;75.37;102898.69;10555572;28;20401;-77
2021/03/30 03:20:08;;;;;;;37.35;19.75;;;;;;;7.70;76.10;102784.25;10539672;28;20038;-77
2021/03/30 03:25:13;;;;;;;38.27;20.63;;;;;;;8.56;76.48;102945.69;10559625;28;20045;-77
2021/03/30 03:30:14;;;;;;;36.03;19.88;;;;;;;8.14;77.22;102898.88;10521546;28;20032;-76
2021/03/30 03:35:14;;;;;;;36.45;21.10;;;;;;;8.20;78.11;102924.66;10566416;28;20035;-77
2021/03/30 03:40:15;;;;;;;36.25;19.67;;;;;;;8.15;78.21;102938.19;10546526;28;20530;-77
2021/03/30 03:45:16;;;;;;;34.75;19.23;;;;;;;7.74;78.64;102890.28;10549365;28;20032;-77
2021/03/30 03:50:16;;;;;;;38.13;20.95;;;;;;;7.79;78.57;102898.28;10563364;28;20124;-76
2021/03/30 03:55:19;;;;;;;40.83;20.00;;;;;;;7.63;79.25;102895.78;10536389;28;20376;-77
2021/03/30 04:00:21;;;;;;;38.97;21.23;;;;;;;7.55;79.68;102899.13;10536863;28;20032;-77
2021/03/30 04:05:43;;;;;;;38.07;20.13;;;;;;;7.44;80.10;102897.63;10536299;28;20048;-77
2021/03/30 04:10:47;;;;;;;40.78;20.75;;;;;;;7.28;80.46;102888.13;10545761;28;20695;-76
2021/03/30 04:15:48;;;;;;;35.70;19.88;;;;;;;7.41;80.84;102925.13;10562056;28;20482;-77
2021/03/30 04:20:49;;;;;;;36.22;19.95;;;;;;;7.43;81.53;102949.03;10556446;28;20109;-77
2021/03/30 04:25:49;;;;;;;38.08;19.45;;;;;;;7.28;82.11;102947.31;10544701;28;20402;-79
2021/03/30 04:30:50;;;;;;;40.97;19.88;;;;;;;6.83;82.39;102888.31;10541916;28;20063;-80
2021/03/30 04:35:50;;;;;;;35.05;20.42;;;;;;;7.19;88.62;102950.59;10520123;28;20036;-76
2021/03/30 04:40:54;;;;;;;36.17;18.95;;;;;;;6.84;88.38;102899.88;10552250;28;20042;-77
2021/03/30 04:45:54;;;;;;;33.55;17.83;;;;;;;6.72;88.12;102914.47;10531517;28;20632;-75
2021/03/30 04:50:55;;;;;;;39.00;20.40;;;;;;;6.76;87.31;102937.03;10561857;28;20034;-77
2021/03/30 04:55:55;;;;;;;33.90;18.23;;;;;;;6.50;87.23;102917.59;10543792;28;20035;-76
2021/03/30 05:00:56;;;;;;;35.30;18.92;;;;;;;6.41;86.98;102907.75;10554293;28;20078;-76
2021/03/30 05:05:56;;;;;;;37.38;19.52;;;;;;;6.42;87.07;102920.09;10555308;28;20465;-77
2021/03/30 05:10:57;;;;;;;38.75;19.33;;;;;;;6.73;87.28;102975.22;10541011;28;20051;-76
2021/03/30 05:15:57;;;;;;;49.20;23.33;;;;;;;6.30;87.15;102913.19;10556214;28;20047;-77
2021/03/30 05:20:57;;;;;;;38.38;20.02;;;;;;;6.36;86.94;102948.88;10532755;28;20809;-77
2021/03/30 05:25:58;;;;;;;33.55;17.75;;;;;;;6.45;87.42;102984.03;10554043;28;20096;-77
2021/03/30 05:30:58;;;;;;;35.35;18.92;;;;;;;6.45;87.39;102984.03;10555229;28;20063;-77
2021/03/30 05:35:59;;;;;;;36.30;19.63;;;;;;;6.34;87.62;102967.16;10553639;28;20221;-76
2021/03/30 05:41:02;;;;;;;36.75;18.80;;;;;;;6.22;87.75;102964.81;10550291;28;20509;-76
2021/03/30 05:46:03;;;;;;;39.45;20.42;;;;;;;6.28;87.66;102984.38;10554964;28;20040;-76
2021/03/30 05:51:04;;;;;;;47.97;24.38;;;;;;;6.29;88.08;102997.53;10533573;28;20525;-82
2021/03/30 05:56:07;;;;;;;41.03;21.13;;;;;;;6.21;87.93;102957.84;10532347;28;20016;-82
2021/03/30 06:01:13;;;;;;;39.40;20.08;;;;;;;6.45;87.94;103005.50;10529251;28;20494;-82
2021/03/30 06:06:13;;;;;;;41.63;21.42;;;;;;;6.16;87.45;102965.91;10526690;28;20097;-81
2021/03/30 06:11:14;;;;;;;39.10;19.90;;;;;;;6.49;87.26;103017.28;10549474;28;20047;-80
2021/03/30 06:16:25;;;;;;;36.10;19.73;;;;;;;6.61;87.07;103020.47;10533124;28;20044;-80
2021/03/30 06:21:25;;;;;;;44.75;22.27;;;;;;;6.50;87.65;102997.41;10545127;28;20082;-80
2021/03/30 06:26:27;;;;;;;42.63;23.25;;;;;;;6.65;87.13;103026.88;10524686;28;20078;-83
2021/03/30 06:31:27;;;;;;;41.13;22.15;;;;;;;6.75;86.99;103032.19;10538358;28;20146;-81
2021/03/30 06:36:32;;;;;;;38.67;20.75;;;;;;;6.54;86.98;102985.03;10529424;28;20038;-79
2021/03/30 06:46:37;;;;;;;42.70;21.15;;;;;;;7.22;86.51;103040.72;10556354;28;20035;-79
2021/03/30 06:51:40;;;;;;;33.40;19.65;;;;;;;7.16;86.42;103010.34;10547024;28;20127;-79
2021/03/30 06:56:45;;;;;;;37.88;20.35;;;;;;;7.48;86.04;103040.47;10517296;28;20044;-79
2021/03/30 07:01:47;;;;;;;40.45;20.52;;;;;;;7.35;87.07;102990.81;10559436;28;20039;-78
2021/03/30 07:06:52;;;;;;;42.45;22.48;;;;;;;7.73;86.68;103012.50;10551153;27;20123;-79
2021/03/30 07:11:52;;;;;;;39.78;23.40;;;;;;;7.98;85.36;102987.97;10539797;28;20660;-79
2021/03/30 07:16:54;;;;;;;50.45;24.92;;;;;;;8.43;83.88;103031.59;10555725;28;20023;-79
2021/03/30 07:22:08;;;;;;;50.53;25.80;;;;;;;8.85;83.12;103021.81;10533682;28;20028;-79
2021/03/30 07:27:15;;;;;;;45.05;24.02;;;;;;;9.05;82.07;102965.94;10529282;28;20036;-78
2021/03/30 07:32:55;;;;;;;45.75;23.27;;;;;;;9.84;80.02;103030.63;10539012;28;20039;-80
2021/03/30 07:38:20;;;;;;;42.42;22.95;;;;;;;10.17;78.11;103022.38;10555726;27;20089;-79
2021/03/30 07:43:26;;;;;;;49.30;25.85;;;;;;;10.13;76.61;102978.94;10562057;28;20138;-78
2021/03/30 07:48:28;;;;;;;44.75;24.90;;;;;;;10.55;76.02;103005.91;10540820;28;20403;-78
2021/03/30 07:53:34;;;;;;;49.63;25.23;;;;;;;11.00;74.60;103028.34;10559868;28;20472;-80
2021/03/30 07:58:42;;;;;;;51.10;26.13;;;;;;;10.73;73.37;102941.94;10544250;28;20043;-77
2021/03/30 08:03:44;;;;;;;48.33;25.80;;;;;;;11.41;72.56;102994.03;10471026;28;20052;-78
2021/03/30 08:08:47;;;;;;;43.35;23.27;;;;;;;11.87;72.11;103006.31;10490997;28;20037;-77
2021/03/30 08:13:53;;;;;;;50.13;26.67;;;;;;;13.30;65.99;103030.94;10507553;28;20036;-78
2021/03/30 08:18:58;;;;;;;55.75;28.13;;;;;;;16.11;54.68;102974.41;10488707;28;20036;-79
2021/03/30 08:24:01;;;;;;;51.28;27.45;;;;;;;19.37;47.29;103031.19;10488826;28;20043;-79
2021/03/30 08:29:36;;;;;;;44.28;27.38;;;;;;;22.03;39.16;103015.66;10487947;28;20073;-78
2021/03/30 08:34:40;;;;;;;47.05;29.30;;;;;;;23.49;34.80;103012.41;10489531;28;20044;-78
2021/03/30 08:39:42;;;;;;;50.33;30.50;;;;;;;24.42;33.06;103034.25;10512460;28;20039;-80
2021/03/30 08:44:56;;;;;;;48.42;31.00;;;;;;;24.87;31.50;102992.91;10458670;28;20040;-79
2021/03/30 08:50:22;;;;;;;53.10;30.60;;;;;;;25.50;31.01;103006.63;10496371;28;20031;-83
2021/03/30 08:55:31;;;;;;;46.08;31.70;;;;;;;25.98;30.53;103046.50;10486088;28;20040;-79
2021/03/30 09:00:32;;;;;;;47.25;32.13;;;;;;;26.08;30.07;102989.38;10464944;28;20451;-79
2021/03/30 09:05:37;;;;;;;47.77;31.67;;;;;;;27.01;30.06;103026.13;10480525;28;20101;-83
2021/03/30 09:16:23;;;;;;;52.72;30.58;;;;;;;26.92;28.82;103019.09;10413091;28;20109;-79
2021/03/30 09:21:26;;;;;;;51.63;30.90;;;;;;;27.19;27.98;103021.06;10501179;28;20086;-81
2021/03/30 09:26:36;;;;;;;49.28;30.92;;;;;;;26.88;28.97;103007.28;10451414;28;20032;-81
2021/03/30 09:32:02;;;;;;;50.42;31.75;;;;;;;26.74;28.89;102976.97;10488602;28;20040;-80
2021/03/30 09:37:11;;;;;;;45.80;30.17;;;;;;;26.99;28.91;102980.13;10486229;28;20024;-81
2021/03/30 09:42:37;;;;;;;49.88;30.70;;;;;;;26.09;28.92;102947.41;10498337;28;20119;-79
2021/03/30 09:48:04;;;;;;;44.65;29.48;;;;;;;26.18;30.11;102988.47;10459804;28;20451;-80
2021/03/30 09:53:08;;;;;;;45.70;29.38;;;;;;;26.56;29.51;103019.66;10479194;28;20036;-77
2021/03/30 09:58:11;;;;;;;46.65;32.10;;;;;;;27.32;29.15;103008.13;10481991;28;20495;-80
2021/03/30 10:03:12;;;;;;;45.88;29.77;;;;;;;27.73;27.82;102987.53;10494610;28;20046;-78
2021/03/30 10:08:18;;;;;;;43.42;28.52;;;;;;;28.71;25.01;102994.59;10465957;28;20036;-79
2021/03/30 10:13:31;;;;;;;41.30;28.40;;;;;;;29.05;23.52;102986.56;10499147;28;20032;-78
2021/03/30 10:18:33;;;;;;;43.10;28.45;;;;;;;28.66;24.88;102949.34;10481500;28;20043;-80
2021/03/30 10:23:43;;;;;;;43.03;28.90;;;;;;;27.95;24.03;102887.06;10484615;28;20061;-79
2021/03/30 10:29:02;;;;;;;42.25;28.83;;;;;;;28.62;23.45;102973.72;10487256;28;20094;-79
2021/03/30 10:34:03;;;;;;;46.22;29.08;;;;;;;28.72;24.12;102971.13;10468089;28;20031;-79
2021/03/30 10:39:06;;;;;;;38.17;26.20;;;;;;;27.68;24.52;102957.47;10430474;28;20056;-77
2021/03/30 10:44:07;;;;;;;41.03;25.35;;;;;;;26.64;24.39;102919.69;10481340;28;20048;-79
2021/03/30 10:49:08;;;;;;;40.58;25.77;;;;;;;26.68;25.19;102953.69;10501682;28;20116;-79
2021/03/30 10:54:13;;;;;;;34.57;23.47;;;;;;;25.66;25.35;102936.84;10493416;28;20158;-79
2021/03/30 10:59:15;;;;;;;36.10;23.55;;;;;;;25.21;25.71;102972.91;10496886;28;20036;-82
2021/03/30 11:04:16;;;;;;;38.65;24.50;;;;;;;25.30;27.45;102964.91;10481226;28;20116;-80
2021/03/30 11:09:18;;;;;;;32.97;21.33;;;;;;;24.67;26.63;102911.72;10510746;28;20058;-87
2021/03/30 11:14:20;;;;;;;33.33;21.52;;;;;;;25.17;26.90;102944.44;10528197;28;20043;-84
2021/03/30 11:19:21;;;;;;;33.22;20.92;;;;;;;24.86;26.97;102891.78;10505376;28;20040;-87
2021/03/30 11:24:24;;;;;;;35.22;23.00;;;;;;;24.67;26.59;102925.53;10507457;28;20048;-83
2021/03/30 11:39:36;;;;;;;36.53;23.23;;;;;;;25.11;26.23;102918.41;10492511;28;20040;-85
2021/03/30 11:44:36;;;;;;;37.45;22.95;;;;;;;24.60;26.78;102856.44;10530478;28;20433;-87
2021/03/30 11:49:38;;;;;;;33.13;20.50;;;;;;;24.93;25.73;102856.91;10503975;28;20036;-80
2021/03/30 11:54:38;;;;;;;34.07;22.33;;;;;;;25.48;25.37;102903.03;10516922;28;20040;-80
2021/03/30 11:59:39;;;;;;;36.13;21.55;;;;;;;25.21;26.55;102884.34;10513755;28;20625;-85
2021/03/30 12:04:42;;;;;;;32.33;20.63;;;;;;;25.01;25.44;102894.41;10543412;28;20028;-83
2021/03/30 12:09:42;;;;;;;34.60;20.67;;;;;;;24.94;24.10;102886.19;10566490;28;20913;-81
2021/03/30 12:14:43;;;;;;;33.95;20.98;;;;;;;24.78;25.96;102890.25;10545265;28;20060;-83
2021/03/30 12:19:43;;;;;;;38.08;23.25;;;;;;;24.81;25.85;102805.66;10529846;28;20134;-82
2021/03/30 12:24:43;;;;;;;30.25;18.23;;;;;;;25.17;24.61;102864.19;10557221;28;20248;-81
2021/03/30 12:29:44;;;;;;;30.98;19.48;;;;;;;25.06;24.18;102849.69;10531236;28;20383;-85
2021/03/30 12:34:44;;;;;;;28.50;18.50;;;;;;;24.99;23.50;102828.41;10546734;28;20036;-83
2021/03/30 12:39:45;;;;;;;27.77;17.90;;;;;;;25.41;23.72;102851.28;10578294;28;20048;-83
2021/03/30 12:44:45;;;;;;;26.05;17.38;;;;;;;25.57;23.93;102834.09;10550224;28;20028;-84
2021/03/30 12:49:46;;;;;;;29.27;18.13;;;;;;;24.70;23.70;102722.84;10545091;28;20149;-86
2021/03/30 12:54:46;;;;;;;33.70;19.77;;;;;;;25.48;24.09;102836.56;10528577;28;20430;-83
2021/03/30 12:59:47;;;;;;;28.10;17.93;;;;;;;25.34;23.36;102781.41;10525137;28;20097;-84
2021/03/30 13:04:47;;;;;;;26.20;16.65;;;;;;;25.76;23.59;102809.72;10519690;28;20052;-81
2021/03/30 13:09:48;;;;;;;34.37;17.67;;;;;;;25.92;23.09;102771.88;10499493;28;20051;-84
2021/03/30 13:14:48;;;;;;;26.17;16.58;;;;;;;26.40;23.14;102783.75;10501029;28;20039;-85
2021/03/30 13:19:49;;;;;;;24.23;16.03;;;;;;;26.54;23.44;102783.53;10500916;28;20040;-83
2021/03/30 13:24:49;;;;;;;21.87;14.23;;;;;;;26.12;22.46;102769.19;10504061;28;20036;-88
2021/03/30 13:29:50;;;;;;;21.60;11.93;;;;;;;25.89;21.71;102716.50;10489961;28;20148;-84
2021/03/30 13:34:51;;;;;;;18.87;10.33;;;;;;;25.81;21.17;102703.97;10503521;28;20032;-85
2021/03/30 13:39:51;;;;;;;20.87;12.80;;;;;;;26.20;21.63;102746.88;10500752;28;20024;-86
2021/03/30 13:44:52;;;;;;;27.33;15.60;;;;;;;25.79;22.93;102703.59;10484438;28;20028;-84
2021/03/30 13:49:52;;;;;;;9.80;5.43;;;;;;;26.04;18.94;102734.47;10495947;28;20040;-80
2021/03/30 13:54:53;;;;;;;12.60;6.60;;;;;;;26.05;20.12;102724.94;10492908;28;20032;-86
2021/03/30 13:59:54;;;;;;;11.20;6.33;;;;;;;25.93;19.80;102656.28;10505196;28;20042;-84
2021/03/30 14:04:54;;;;;;;12.77;5.00;;;;;;;26.31;18.45;102714.22;10502410;28;20063;-90
2021/03/30 14:09:55;;;;;;;7.77;3.10;;;;;;;26.28;18.25;102681.81;10471577;28;20180;-90
2021/03/30 14:15:00;;;;;;;9.40;4.73;;;;;;;26.43;19.31;102704.50;10501078;28;20049;-87
2021/03/30 14:20:01;;;;;;;11.10;4.57;;;;;;;26.55;18.36;102676.97;10489224;28;20127;-86
2021/03/30 14:25:16;;;;;;;8.45;4.97;;;;;;;26.02;18.68;102689.78;10516679;28;20031;-84
2021/03/30 14:30:20;;;;;;;12.30;5.72;;;;;;;25.53;18.67;102639.53;10523466;28;20244;-84
2021/03/30 14:35:20;;;;;;;11.43;5.55;;;;;;;25.74;19.04;102666.09;10477477;28;20043;-83
2021/03/30 14:40:29;;;;;;;20.13;7.20;;;;;;;25.89;19.66;102666.66;10512664;28;20483;-79
2021/03/30 14:56:21;;;;;;;10.48;4.15;;;;;;;25.58;17.88;102605.81;10491455;28;20036;-83
2021/03/30 15:06:24;;;;;;;11.98;4.35;;;;;;;25.86;19.04;102632.25;10495803;28;20048;-83
2021/03/30 15:11:25;;;;;;;7.93;4.65;;;;;;;25.83;19.07;102624.00;10510773;28;20056;-83
2021/03/30 15:16:25;;;;;;;7.97;4.43;;;;;;;25.99;18.90;102632.44;10521143;28;20529;-82
2021/03/30 15:21:26;;;;;;;13.27;5.53;;;;;;;25.76;19.44;102615.81;10535844;28;20044;-81
2021/03/30 15:26:27;;;;;;;7.30;4.43;;;;;;;25.31;18.01;102595.56;10524759;28;20043;-81
2021/03/30 15:31:27;;;;;;;9.10;4.45;;;;;;;25.23;19.24;102577.50;10461724;28;20039;-80
2021/03/30 15:36:27;;;;;;;9.25;4.70;;;;;;;25.12;20.26;102582.41;10488575;28;20059;-81
2021/03/30 15:41:28;;;;;;;9.25;4.70;;;;;;;25.06;18.81;102561.94;10485988;28;20108;-84
2021/03/30 15:51:49;;;;;;;13.93;5.90;;;;;;;25.30;19.22;102605.09;10473075;28;20040;-82
2021/03/30 15:56:49;;;;;;;13.93;5.28;;;;;;;25.13;20.65;102600.56;10469598;28;20672;-84
2021/03/30 16:01:50;;;;;;;10.45;5.40;;;;;;;25.30;20.64;102587.66;10494693;28;20070;-83
2021/03/30 16:06:51;;;;;;;10.30;5.45;;;;;;;24.95;20.84;102561.31;10518756;28;20518;-80
2021/03/30 16:11:51;;;;;;;11.40;4.80;;;;;;;25.12;20.47;102554.75;10475777;28;20059;-83
2021/03/30 16:16:52;;;;;;;14.20;5.57;;;;;;;24.82;20.97;102520.41;10537026;28;20040;-84
2021/03/30 16:21:53;;;;;;;12.10;5.13;;;;;;;24.94;20.70;102521.03;10522591;28;21042;-85
2021/03/30 16:26:53;;;;;;;9.40;4.68;;;;;;;24.97;20.23;102553.38;10496739;28;20032;-83
2021/03/30 16:31:54;;;;;;;14.80;4.53;;;;;;;24.66;21.17;102511.94;10511043;28;20097;-84
2021/03/30 16:36:54;;;;;;;12.32;5.05;;;;;;;24.95;21.18;102550.25;10519242;28;20380;-85
2021/03/30 16:41:55;;;;;;;10.73;4.85;;;;;;;24.87;21.17;102530.97;10495438;28;20120;-84
2021/03/30 16:46:56;;;;;;;11.32;5.47;;;;;;;24.69;21.52;102533.22;10513435;28;20051;-85
2021/03/30 16:51:56;;;;;;;15.98;4.65;;;;;;;24.76;21.10;102538.66;10501835;28;20122;-83
2021/03/30 16:56:57;;;;;;;10.48;4.63;;;;;;;24.50;22.04;102528.34;10522448;28;20028;-86
2021/03/30 17:01:59;;;;;;;8.47;4.40;;;;;;;24.47;21.51;102538.28;10493181;28;20028;-88
2021/03/30 17:07:07;;;;;;;10.43;4.70;;;;;;;24.30;22.03;102550.31;10503780;28;20121;-86
2021/03/30 17:12:08;;;;;;;10.95;4.82;;;;;;;23.90;22.35;102512.09;10535209;28;20052;-81
2021/03/30 17:17:08;;;;;;;8.23;4.53;;;;;;;23.94;23.28;102534.94;10521523;28;20290;-88
2021/03/30 17:22:08;;;;;;;8.40;5.07;;;;;;;23.86;23.71;102544.47;10515309;28;20452;-80
2021/03/30 17:27:09;;;;;;;10.27;4.65;;;;;;;23.61;24.33;102551.00;10513502;28;20080;-82
2021/03/30 17:32:12;;;;;;;7.40;3.88;;;;;;;23.44;24.96;102551.91;10475240;28;20032;-86
2021/03/30 17:37:12;;;;;;;7.40;4.32;;;;;;;23.13;25.44;102537.97;10515020;28;20046;-82
2021/03/30 17:42:14;;;;;;;8.70;3.70;;;;;;;22.95;26.05;102546.38;10474993;28;20058;-82
2021/03/30 17:47:14;;;;;;;11.60;4.43;;;;;;;22.66;26.62;102548.47;10477525;28;20064;-82
2021/03/30 17:52:15;;;;;;;7.68;4.50;;;;;;;22.40;27.27;102546.25;10473892;28;20033;-81
2021/03/30 17:57:15;;;;;;;9.82;5.18;;;;;;;22.14;28.31;102534.50;10488128;28;20472;-85
2021/03/30 18:02:16;;;;;;;8.52;5.03;;;;;;;21.73;28.43;102526.75;10490155;28;20387;-81
2021/03/30 18:07:16;;;;;;;7.75;4.80;;;;;;;21.18;29.73;102480.38;10512803;28;20051;-83
2021/03/30 18:12:17;;;;;;;13.73;4.50;;;;;;;21.32;30.48;102535.38;10553287;27;20484;-81
2021/03/30 18:17:18;;;;;;;11.23;4.47;;;;;;;20.76;32.36;102503.88;10538416;28;20495;-79
2021/03/30 18:22:18;;;;;;;17.55;9.05;;;;;;;20.41;32.83;102499.81;10530222;28;20061;-78
2021/03/30 18:27:19;;;;;;;9.63;5.97;;;;;;;19.72;33.44;102443.81;10556103;27;20107;-78
2021/03/30 18:32:20;;;;;;;9.65;5.30;;;;;;;20.01;33.47;102520.81;10551668;28;20036;-83
2021/03/30 18:37:20;;;;;;;9.60;5.15;;;;;;;19.62;34.52;102502.13;10537366;28;20172;-79
2021/03/30 18:42:22;;;;;;;9.77;4.10;;;;;;;19.60;34.15;102531.88;10566515;28;20118;-80
2021/03/30 18:47:24;;;;;;;16.15;4.60;;;;;;;19.33;35.00;102532.06;10531697;28;21785;-78
2021/03/30 18:52:26;;;;;;;7.43;3.90;;;;;;;18.94;36.26;102513.28;10532537;28;20091;-78
2021/03/30 18:57:31;;;;;;;;;;;;;;;19.00;36.89;102547.41;10513764;28;20020;-78
2021/03/30 19:02:33;;;;;;;10.73;4.10;;;;;;;18.70;37.65;102538.44;10536265;28;19923;-77
2021/03/30 19:07:33;;;;;;;7.72;3.65;;;;;;;18.13;38.28;102484.56;10544857;28;20056;-77
2021/03/30 19:12:35;;;;;;;13.32;4.25;;;;;;;18.24;38.66;102527.69;10526976;28;20100;-77
2021/03/30 19:17:36;;;;;;;9.27;3.55;;;;;;;18.06;39.75;102530.19;10511943;28;20050;-79
2021/03/30 19:22:36;;;;;;;11.60;4.00;;;;;;;17.73;40.12;102488.69;10526759;28;20364;-82
2021/03/30 19:27:38;;;;;;;8.00;3.88;;;;;;;17.63;40.31;102502.97;10545541;28;20028;-79
2021/03/30 19:32:40;;;;;;;9.03;3.27;;;;;;;17.31;40.98;102473.19;10535884;27;20054;-78
2021/03/30 19:37:40;;;;;;;9.17;3.37;;;;;;;17.09;41.72;102471.25;10540749;27;20939;-79
2021/03/30 19:42:41;;;;;;;7.45;3.63;;;;;;;16.74;42.13;102439.38;10545362;27;20289;-78
2021/03/30 19:47:42;;;;;;;8.32;3.75;;;;;;;17.00;42.07;102503.47;10525043;28;20028;-79
2021/03/30 19:52:43;;;;;;;7.55;3.83;;;;;;;16.82;43.13;102495.75;10538838;28;20380;-80
2021/03/30 19:57:43;;;;;;;12.75;5.28;;;;;;;16.88;43.43;102521.59;10560068;28;20154;-79
2021/03/30 20:02:44;;;;;;;15.05;4.15;;;;;;;16.38;43.10;102460.53;10550844;28;20115;-81
2021/03/30 20:07:45;;;;;;;10.32;4.13;;;;;;;16.37;42.36;102469.88;10549153;28;20048;-80
2021/03/30 20:12:47;;;;;;;7.95;4.82;;;;;;;16.41;42.56;102498.03;10545337;28;20203;-81
2021/03/30 20:17:47;;;;;;;13.27;6.88;;;;;;;16.30;43.56;102518.88;10523058;28;20032;-79
2021/03/30 20:22:48;;;;;;;11.82;6.25;;;;;;;16.07;43.77;102510.56;10507150;28;20062;-80
2021/03/30 20:27:49;;;;;;;30.88;16.55;;;;;;;15.88;44.22;102508.59;10538935;28;20067;-79
2021/03/30 20:32:50;;;;;;;24.77;11.00;;;;;;;15.76;45.19;102505.97;10508268;28;20027;-79
2021/03/30 20:37:50;;;;;;;19.30;8.55;;;;;;;15.54;45.70;102494.50;10534873;28;20130;-78
2021/03/30 20:42:52;;;;;;;14.10;6.78;;;;;;;15.56;45.98;102507.78;10533702;28;20531;-80
2021/03/30 20:47:53;;;;;;;14.45;5.00;;;;;;;15.41;46.81;102501.22;10518442;28;20031;-79
2021/03/30 20:52:54;;;;;;;12.45;5.93;;;;;;;15.12;47.43;102484.16;10559605;28;20042;-80
2021/03/30 20:57:54;;;;;;;12.45;4.68;;;;;;;15.08;47.85;102499.59;10542806;28;20672;-81
2021/03/30 21:02:55;;;;;;;9.38;4.38;;;;;;;14.69;50.46;102487.66;10556992;28;20039;-85
2021/03/30 21:07:55;;;;;;;13.77;5.78;;;;;;;14.83;48.37;102514.50;10515705;28;20412;-79
2021/03/30 21:12:56;;;;;;;11.70;6.00;;;;;;;14.71;48.11;102474.50;10552695;28;20123;-76
2021/03/30 21:17:57;;;;;;;12.50;5.72;;;;;;;14.78;48.93;102501.91;10549723;28;20031;-77
2021/03/30 21:22:57;;;;;;;15.65;7.13;;;;;;;14.66;48.35;102505.47;10529622;28;20044;-77
2021/03/30 21:27:58;;;;;;;18.92;5.78;;;;;;;14.27;48.74;102460.81;10537526;28;20032;-79
2021/03/30 21:32:59;;;;;;;14.57;6.55;;;;;;;14.38;49.34;102495.34;10501041;28;20088;-79
2021/03/30 21:37:59;;;;;;;14.00;6.72;;;;;;;13.95;49.77;102428.81;10537043;28;20040;-79
2021/03/30 21:43:00;;;;;;;14.55;7.75;;;;;;;14.09;49.82;102449.41;10520142;28;20040;-79
2021/03/30 21:48:01;;;;;;;13.35;6.80;;;;;;;14.17;49.56;102473.75;10568880;28;20093;-79
2021/03/30 21:53:01;;;;;;;16.85;8.02;;;;;;;13.89;49.76;102438.34;10527515;28;20032;-79
2021/03/30 21:58:02;;;;;;;17.10;8.10;;;;;;;13.87;50.33;102448.75;10553445;28;20051;-79
2021/03/30 22:03:04;;;;;;;14.98;7.75;;;;;;;13.73;50.53;102451.03;10557495;28;20097;-78
2021/03/30 22:08:05;;;;;;;13.77;7.28;;;;;;;13.71;50.91;102467.72;10537879;28;20055;-78
2021/03/30 22:13:13;;;;;;;17.17;7.95;;;;;;;13.74;50.73;102455.38;10551273;28;20059;-78
2021/03/30 22:18:15;;;;;;;12.68;6.80;;;;;;;13.55;51.35;102425.28;10533845;28;20047;-77
2021/03/30 22:23:21;;;;;;;14.95;7.25;;;;;;;13.63;52.01;102443.38;10554013;28;20102;-80
2021/03/30 22:28:22;;;;;;;14.98;6.78;;;;;;;13.09;52.69;102376.44;10554479;28;20028;-78
2021/03/30 22:33:28;;;;;;;14.73;7.27;;;;;;;13.26;52.69;102413.44;10534298;28;20441;-78
2021/03/30 22:38:29;;;;;;;10.50;6.65;;;;;;;13.27;52.72;102425.91;10535795;28;20094;-78
2021/03/30 22:43:34;;;;;;;13.52;7.25;;;;;;;13.00;51.69;102395.53;10562550;28;20034;-77
2021/03/30 22:48:35;;;;;;;14.83;7.50;;;;;;;13.30;52.39;102436.13;10558849;28;20028;-78
2021/03/30 22:53:35;;;;;;;13.52;7.18;;;;;;;13.26;52.72;102435.16;10535588;28;20036;-78
2021/03/30 22:58:36;;;;;;;12.75;6.93;;;;;;;13.00;53.21;102428.13;10566032;28;20126;-78
2021/03/30 23:03:36;;;;;;;17.60;6.53;;;;;;;12.88;54.41;102414.53;10538859;28;20153;-78
2021/03/30 23:08:37;;;;;;;16.40;7.18;;;;;;;12.46;55.29;102376.66;10556942;28;20036;-78
2021/03/30 23:13:37;;;;;;;14.05;8.13;;;;;;;12.65;55.55;102423.09;10529886;28;20043;-78
2021/03/30 23:18:38;;;;;;;14.82;8.02;;;;;;;12.13;55.60;102358.47;10559224;28;20040;-78
2021/03/30 23:23:38;;;;;;;14.07;6.88;;;;;;;12.47;55.72;102427.09;10534460;28;20169;-78
2021/03/30 23:28:39;;;;;;;16.77;7.53;;;;;;;12.29;56.23;102409.38;10533573;28;20051;-78
2021/03/30 23:33:39;;;;;;;14.30;6.95;;;;;;;12.26;56.64;102427.88;10541003;28;20039;-78
2021/03/30 23:38:40;;;;;;;11.88;7.38;;;;;;;12.11;57.13;102414.94;10553017;28;20044;-78